Back to Top

Language: 

My Weather Underground Personal Weather Station Historical Data with Graphs...

Delerius Weather Station Historical Data
Daily Summary for March 31, 2017 Units:  English    Metric   Both
« Previous Day
Next Day »
Daily Weekly Monthly Yearly Custom
  High: Low: Average:
Temperature: 63.9 °F 52.3 °F 57.9 °F
Dew Point: 50.2 °F 42.3 °F 47.6 °F
Humidity: 82 % 48 % 70 %
Wind Speed: 17.0 mph 0.0 mph 8.7 mph
Wind Gust: 32.0 mph - -
Wind:- - SSW
Pressure: 29.83 in 29.66 in -
Precipitation: 0.00 in    
Historical Graphs
 
 
Tabular Data for March 31, 2017
Time Temperature Dew Point Pressure Wind Wind Speed Wind Gust Humidity Rainfall Rate (Hourly) solar Conditions
00:04 59.2 °F 49.8 °F 29.83 in SSE 5.0 mph 11.0 mph 71 % 0.00 in 0 W/m2
00:09 59.0 °F 49.6 °F 29.83 in SSE 5.0 mph 9.0 mph 71 % 0.00 in 0 W/m2
00:14 58.8 °F 49.4 °F 29.83 in SSE 5.0 mph 9.0 mph 71 % 0.00 in 0 W/m2
00:19 58.8 °F 49.8 °F 29.83 in SSE 5.0 mph 9.0 mph 72 % 0.00 in 0 W/m2
00:24 58.6 °F 49.6 °F 29.83 in SSE 4.0 mph 8.0 mph 72 % 0.00 in 0 W/m2
00:29 58.6 °F 49.6 °F 29.83 in SSE 4.0 mph 8.0 mph 72 % 0.00 in 0 W/m2
00:34 58.5 °F 49.5 °F 29.82 in SSE 4.0 mph 8.0 mph 72 % 0.00 in 0 W/m2
00:39 58.5 °F 49.8 °F 29.82 in SSE 4.0 mph 8.0 mph 73 % 0.00 in 0 W/m2
00:44 58.3 °F 49.7 °F 29.82 in SSE 4.0 mph 8.0 mph 73 % 0.00 in 0 W/m2
00:49 58.3 °F 49.7 °F 29.81 in SSE 4.0 mph 8.0 mph 73 % 0.00 in 0 W/m2
00:54 58.3 °F 49.7 °F 29.81 in SSE 4.0 mph 8.0 mph 73 % 0.00 in 0 W/m2
00:59 58.3 °F 50.0 °F 29.81 in SSE 4.0 mph 8.0 mph 74 % 0.00 in 0 W/m2
01:04 58.1 °F 49.9 °F 29.80 in SE 5.0 mph 9.0 mph 74 % 0.00 in 0 W/m2
01:09 57.9 °F 49.7 °F 29.80 in SE 4.0 mph 9.0 mph 74 % 0.00 in 0 W/m2
01:14 57.7 °F 49.5 °F 29.80 in SE 4.0 mph 8.0 mph 74 % 0.00 in 0 W/m2
01:19 57.7 °F 49.9 °F 29.80 in SE 4.0 mph 8.0 mph 75 % 0.00 in 0 W/m2
01:24 57.6 °F 49.7 °F 29.80 in SE 5.0 mph 10.0 mph 75 % 0.00 in 0 W/m2
01:29 57.6 °F 49.7 °F 29.79 in SE 6.0 mph 10.0 mph 75 % 0.00 in 0 W/m2
01:34 57.4 °F 49.9 °F 29.79 in SE 6.0 mph 9.0 mph 76 % 0.00 in 0 W/m2
01:39 57.4 °F 49.9 °F 29.79 in SE 5.0 mph 8.0 mph 76 % 0.00 in 0 W/m2
01:44 57.4 °F 49.9 °F 29.78 in SE 5.0 mph 8.0 mph 76 % 0.00 in 0 W/m2
01:49 57.4 °F 49.9 °F 29.78 in SSE 5.0 mph 9.0 mph 76 % 0.00 in 0 W/m2
01:54 57.2 °F 49.7 °F 29.78 in SSE 5.0 mph 9.0 mph 76 % 0.00 in 0 W/m2
01:59 57.2 °F 50.1 °F 29.78 in SSE 5.0 mph 9.0 mph 77 % 0.00 in 0 W/m2
02:04 57.0 °F 49.5 °F 29.78 in SE 4.0 mph 9.0 mph 76 % 0.00 in 0 W/m2
02:09 57.0 °F 49.9 °F 29.78 in SSE 3.0 mph 7.0 mph 77 % 0.00 in 0 W/m2
02:14 57.0 °F 49.9 °F 29.78 in SSE 3.0 mph 7.0 mph 77 % 0.00 in 0 W/m2
02:19 57.0 °F 49.9 °F 29.78 in South 2.0 mph 7.0 mph 77 % 0.00 in 0 W/m2
02:24 57.0 °F 49.9 °F 29.77 in SSE 1.0 mph 4.0 mph 77 % 0.00 in 0 W/m2
02:29 56.8 °F 49.7 °F 29.77 in Calm   2.0 mph 77 % 0.00 in 0 W/m2
02:34 56.8 °F 49.7 °F 29.76 in Calm   2.0 mph 77 % 0.00 in 0 W/m2
02:39 56.7 °F 49.9 °F 29.76 in Calm   2.0 mph 78 % 0.00 in 0 W/m2
02:44 56.5 °F 49.7 °F 29.76 in Calm   2.0 mph 78 % 0.00 in 0 W/m2
02:49 56.5 °F 49.7 °F 29.76 in Calm   2.0 mph 78 % 0.00 in 0 W/m2
02:54 56.5 °F 49.7 °F 29.76 in SSE 1.0 mph 5.0 mph 78 % 0.00 in 0 W/m2
03:00 56.5 °F 49.7 °F 29.75 in SSE 1.0 mph 5.0 mph 78 % 0.00 in 0 W/m2
03:04 56.5 °F 49.7 °F 29.75 in SSE 2.0 mph 6.0 mph 78 % 0.00 in 0 W/m2
03:09 56.5 °F 49.7 °F 29.75 in SSE 2.0 mph 8.0 mph 78 % 0.00 in 0 W/m2
03:14 56.5 °F 49.7 °F 29.75 in South 3.0 mph 8.0 mph 78 % 0.00 in 0 W/m2
03:19 56.5 °F 49.7 °F 29.75 in South 4.0 mph 10.0 mph 78 % 0.00 in 0 W/m2
03:24 56.5 °F 49.7 °F 29.75 in South 4.0 mph 10.0 mph 78 % 0.00 in 0 W/m2
03:29 56.5 °F 49.7 °F 29.74 in South 5.0 mph 10.0 mph 78 % 0.00 in 0 W/m2
03:34 56.5 °F 49.7 °F 29.75 in South 5.0 mph 10.0 mph 78 % 0.00 in 0 W/m2
03:39 56.5 °F 49.7 °F 29.74 in South 5.0 mph 8.0 mph 78 % 0.00 in 0 W/m2
03:44 56.5 °F 49.7 °F 29.74 in SSW 6.0 mph 11.0 mph 78 % 0.00 in 0 W/m2
03:49 56.5 °F 49.7 °F 29.74 in SSW 5.0 mph 11.0 mph 78 % 0.00 in 0 W/m2
03:54 56.1 °F 49.4 °F 29.74 in SW 4.0 mph 7.0 mph 78 % 0.00 in 0 W/m2
03:59 56.1 °F 49.4 °F 29.74 in SW 4.0 mph 7.0 mph 78 % 0.00 in 0 W/m2
04:04 55.9 °F 49.2 °F 29.74 in SSW 3.0 mph 7.0 mph 78 % 0.00 in 0 W/m2
04:09 55.9 °F 49.5 °F 29.73 in South 2.0 mph 7.0 mph 79 % 0.00 in 0 W/m2
04:14 55.9 °F 49.5 °F 29.73 in SSE 4.0 mph 8.0 mph 79 % 0.00 in 0 W/m2
04:19 55.8 °F 49.3 °F 29.73 in SSE 5.0 mph 9.0 mph 79 % 0.00 in 0 W/m2
04:24 55.8 °F 49.3 °F 29.72 in SSE 5.0 mph 9.0 mph 79 % 0.00 in 0 W/m2
04:27 55.8 °F 49.3 °F 29.72 in SSE 5.0 mph 9.0 mph 79 % 0.00 in 0 W/m2
04:32 55.8 °F 49.3 °F 29.72 in SSE 4.0 mph 8.0 mph 79 % 0.00 in 0 W/m2
04:37 55.8 °F 49.3 °F 29.71 in SE 4.0 mph 8.0 mph 79 % 0.00 in 0 W/m2
04:42 55.8 °F 49.3 °F 29.71 in SE 3.0 mph 6.0 mph 79 % 0.00 in 0 W/m2
04:47 55.8 °F 49.3 °F 29.71 in SSE 2.0 mph 6.0 mph 79 % 0.00 in 0 W/m2
04:52 55.8 °F 49.3 °F 29.71 in South 2.0 mph 8.0 mph 79 % 0.00 in 0 W/m2
04:57 55.6 °F 49.5 °F 29.71 in South 3.0 mph 8.0 mph 80 % 0.00 in 0 W/m2
05:02 55.6 °F 49.5 °F 29.71 in South 3.0 mph 7.0 mph 80 % 0.00 in 0 W/m2
05:07 55.6 °F 49.5 °F 29.71 in South 3.0 mph 7.0 mph 80 % 0.00 in 0 W/m2
05:12 55.4 °F 49.3 °F 29.71 in South 2.0 mph 6.0 mph 80 % 0.00 in 0 W/m2
05:17 55.4 °F 49.3 °F 29.71 in South 2.0 mph 6.0 mph 80 % 0.00 in 0 W/m2
05:22 55.2 °F 49.2 °F 29.71 in South 3.0 mph 10.0 mph 80 % 0.00 in 0 W/m2
05:27 55.2 °F 49.5 °F 29.71 in South 5.0 mph 10.0 mph 81 % 0.00 in 0 W/m2
05:32 55.4 °F 49.7 °F 29.70 in South 5.0 mph 12.0 mph 81 % 0.00 in 0 W/m2
05:37 55.4 °F 49.7 °F 29.70 in South 5.0 mph 12.0 mph 81 % 0.00 in 0 W/m2
05:42 55.4 °F 49.3 °F 29.70 in South 4.0 mph 11.0 mph 80 % 0.00 in 0 W/m2
05:47 55.4 °F 49.7 °F 29.70 in South 4.0 mph 8.0 mph 81 % 0.00 in 0 W/m2
05:52 55.4 °F 49.7 °F 29.70 in South 4.0 mph 8.0 mph 81 % 0.00 in 0 W/m2
05:57 55.2 °F 49.5 °F 29.70 in South 4.0 mph 9.0 mph 81 % 0.00 in 0 W/m2
06:02 55.2 °F 49.5 °F 29.69 in South 5.0 mph 10.0 mph 81 % 0.00 in 0 W/m2
06:07 55.2 °F 49.5 °F 29.69 in SSW 6.0 mph 11.0 mph 81 % 0.00 in 0 W/m2
06:12 55.2 °F 49.5 °F 29.69 in SSW 6.0 mph 11.0 mph 81 % 0.00 in 0 W/m2
06:17 55.2 °F 49.5 °F 29.69 in SSW 7.0 mph 13.0 mph 81 % 0.00 in 0 W/m2
06:22 55.2 °F 49.5 °F 29.68 in SSW 7.0 mph 13.0 mph 81 % 0.00 in 0 W/m2
06:27 55.2 °F 49.5 °F 29.68 in SSW 6.0 mph 11.0 mph 81 % 0.00 in 0 W/m2
06:32 55.0 °F 49.6 °F 29.68 in SSW 6.0 mph 11.0 mph 82 % 0.00 in 0 W/m2
06:42 55.0 °F 49.6 °F 29.68 in SSW 7.0 mph 15.0 mph 82 % 0.00 in 0 W/m2
06:47 55.0 °F 49.6 °F 29.68 in South 6.0 mph 15.0 mph 82 % 0.00 in 0 W/m2
06:52 55.0 °F 49.6 °F 29.68 in South 7.0 mph 14.0 mph 82 % 0.00 in 5 W/m2
06:57 55.0 °F 49.3 °F 29.67 in South 9.0 mph 16.0 mph 81 % 0.00 in 7 W/m2
07:02 55.0 °F 49.3 °F 29.67 in South 8.0 mph 16.0 mph 81 % 0.00 in 11 W/m2
07:07 55.0 °F 49.3 °F 29.67 in South 7.0 mph 16.0 mph 81 % 0.00 in 18 W/m2
07:12 55.0 °F 49.3 °F 29.67 in South 7.0 mph 16.0 mph 81 % 0.00 in 23 W/m2
07:17 55.0 °F 49.3 °F 29.67 in South 7.0 mph 15.0 mph 81 % 0.00 in 33 W/m2
07:22 55.2 °F 49.5 °F 29.67 in South 8.0 mph 15.0 mph 81 % 0.00 in 40 W/m2
07:27 55.2 °F 49.5 °F 29.67 in South 7.0 mph 13.0 mph 81 % 0.00 in 39 W/m2
07:32 55.2 °F 49.5 °F 29.67 in South 8.0 mph 16.0 mph 81 % 0.00 in 37 W/m2
07:37 55.4 °F 49.3 °F 29.67 in South 10.0 mph 19.0 mph 80 % 0.00 in 32 W/m2
07:42 55.6 °F 49.5 °F 29.67 in South 10.0 mph 19.0 mph 80 % 0.00 in 28 W/m2
07:47 55.6 °F 49.5 °F 29.66 in South 9.0 mph 19.0 mph 80 % 0.00 in 32 W/m2
07:52 55.6 °F 49.5 °F 29.66 in South 9.0 mph 19.0 mph 80 % 0.00 in 33 W/m2
07:57 55.6 °F 49.5 °F 29.66 in South 9.0 mph 18.0 mph 80 % 0.00 in 39 W/m2
08:02 55.6 °F 49.2 °F 29.67 in South 10.0 mph 21.0 mph 79 % 0.00 in 46 W/m2
08:07 55.6 °F 49.5 °F 29.67 in South 11.0 mph 21.0 mph 80 % 0.00 in 53 W/m2
08:13 55.6 °F 49.5 °F 29.66 in South 10.0 mph 18.0 mph 80 % 0.00 in 54 W/m2
08:18 55.6 °F 49.5 °F 29.66 in South 11.0 mph 20.0 mph 80 % 0.00 in 49 W/m2
08:23 55.6 °F 49.5 °F 29.66 in South 10.0 mph 20.0 mph 80 % 0.00 in 51 W/m2
08:28 55.6 °F 49.5 °F 29.66 in South 9.0 mph 18.0 mph 80 % 0.00 in 56 W/m2
08:33 55.6 °F 49.5 °F 29.66 in South 10.0 mph 23.0 mph 80 % 0.00 in 60 W/m2
08:38 55.6 °F 49.2 °F 29.66 in South 11.0 mph 23.0 mph 79 % 0.00 in 63 W/m2
08:43 55.8 °F 49.3 °F 29.66 in South 11.0 mph 23.0 mph 79 % 0.00 in 79 W/m2
08:48 55.8 °F 49.3 °F 29.66 in South 11.0 mph 24.0 mph 79 % 0.00 in 104 W/m2
08:53 55.9 °F 49.5 °F 29.66 in SSW 12.0 mph 24.0 mph 79 % 0.00 in 276 W/m2
08:58 56.3 °F 49.5 °F 29.66 in South 12.0 mph 23.0 mph 78 % 0.00 in 262 W/m2
09:03 56.7 °F 49.5 °F 29.66 in South 11.0 mph 22.0 mph 77 % 0.00 in 98 W/m2
09:08 56.8 °F 49.4 °F 29.67 in SSW 11.0 mph 20.0 mph 76 % 0.00 in 403 W/m2
09:13 57.4 °F 49.9 °F 29.67 in SSW 12.0 mph 20.0 mph 76 % 0.00 in 401 W/m2
09:18 57.7 °F 50.2 °F 29.66 in SSW 11.0 mph 23.0 mph 76 % 0.00 in 417 W/m2
09:23 57.7 °F 49.9 °F 29.66 in SSW 13.0 mph 32.0 mph 75 % 0.00 in 489 W/m2
09:28 57.9 °F 50.0 °F 29.66 in SSW 14.0 mph 32.0 mph 75 % 0.00 in 260 W/m2
09:33 57.9 °F 49.7 °F 29.67 in SSW 13.0 mph 26.0 mph 74 % 0.00 in 211 W/m2
09:38 57.9 °F 50.0 °F 29.67 in SSW 12.0 mph 26.0 mph 75 % 0.00 in 227 W/m2
09:43 57.9 °F 49.7 °F 29.67 in SSW 11.0 mph 24.0 mph 74 % 0.00 in 134 W/m2
09:48 57.7 °F 49.5 °F 29.67 in SSW 12.0 mph 26.0 mph 74 % 0.00 in 127 W/m2
09:53 57.4 °F 49.2 °F 29.67 in SW 14.0 mph 26.0 mph 74 % 0.00 in 148 W/m2
09:58 57.4 °F 49.5 °F 29.68 in SW 13.0 mph 23.0 mph 75 % 0.00 in 153 W/m2
10:03 57.4 °F 49.2 °F 29.67 in SSW 14.0 mph 25.0 mph 74 % 0.00 in 141 W/m2
10:08 57.0 °F 48.8 °F 29.67 in SSW 15.0 mph 25.0 mph 74 % 0.00 in 250 W/m2
10:13 57.6 °F 49.3 °F 29.68 in SSW 14.0 mph 25.0 mph 74 % 0.00 in 775 W/m2
10:18 58.3 °F 50.0 °F 29.67 in SSW 14.0 mph 29.0 mph 74 % 0.00 in 190 W/m2
10:23 58.3 °F 49.3 °F 29.67 in SSW 14.0 mph 29.0 mph 72 % 0.00 in 339 W/m2
10:28 58.3 °F 49.7 °F 29.67 in SSW 15.0 mph 24.0 mph 73 % 0.00 in 666 W/m2
10:33 58.6 °F 50.0 °F 29.67 in SSW 14.0 mph 24.0 mph 73 % 0.00 in 645 W/m2
10:38 59.2 °F 50.2 °F 29.68 in SW 12.0 mph 25.0 mph 72 % 0.00 in 248 W/m2
10:43 59.2 °F 49.8 °F 29.67 in SW 12.0 mph 27.0 mph 71 % 0.00 in 327 W/m2
10:48 59.4 °F 49.6 °F 29.67 in SW 14.0 mph 27.0 mph 70 % 0.00 in 752 W/m2
10:53 59.7 °F 49.9 °F 29.68 in SW 14.0 mph 27.0 mph 70 % 0.00 in 758 W/m2
10:58 59.7 °F 49.5 °F 29.68 in SW 13.0 mph 26.0 mph 69 % 0.00 in 162 W/m2
11:03 59.0 °F 48.8 °F 29.68 in SW 13.0 mph 23.0 mph 69 % 0.00 in 248 W/m2
11:08 58.8 °F 49.1 °F 29.68 in SW 13.0 mph 23.0 mph 70 % 0.00 in 248 W/m2
11:13 59.5 °F 49.0 °F 29.68 in SW 13.0 mph 27.0 mph 68 % 0.00 in 682 W/m2
11:18 60.1 °F 48.7 °F 29.68 in SW 16.0 mph 29.0 mph 66 % 0.00 in 687 W/m2
11:23 60.3 °F 48.9 °F 29.68 in SW 17.0 mph 29.0 mph 66 % 0.00 in 821 W/m2
11:29 60.8 °F 49.4 °F 29.68 in SW 14.0 mph 27.0 mph 66 % 0.00 in 828 W/m2
11:34 60.8 °F 49.0 °F 29.68 in SW 13.0 mph 23.0 mph 65 % 0.00 in 884 W/m2
11:39 60.1 °F 48.3 °F 29.68 in SSW 15.0 mph 29.0 mph 65 % 0.00 in 199 W/m2
11:44 59.5 °F 48.2 °F 29.68 in SW 15.0 mph 29.0 mph 66 % 0.00 in 243 W/m2
11:49 59.4 °F 47.6 °F 29.68 in SW 14.0 mph 28.0 mph 65 % 0.00 in 403 W/m2
11:54 59.5 °F 47.8 °F 29.68 in SW 13.0 mph 28.0 mph 65 % 0.00 in 283 W/m2
11:59 60.1 °F 48.3 °F 29.68 in SW 13.0 mph 26.0 mph 65 % 0.00 in 874 W/m2
12:04 60.4 °F 48.2 °F 29.69 in SW 14.0 mph 26.0 mph 64 % 0.00 in 227 W/m2
12:09 60.1 °F 47.4 °F 29.69 in SW 15.0 mph 24.0 mph 63 % 0.00 in 302 W/m2
12:14 60.3 °F 47.6 °F 29.69 in SW 14.0 mph 24.0 mph 63 % 0.00 in 299 W/m2
12:19 59.7 °F 47.1 °F 29.69 in SW 14.0 mph 26.0 mph 63 % 0.00 in 178 W/m2
12:24 59.5 °F 47.8 °F 29.69 in SW 15.0 mph 26.0 mph 65 % 0.00 in 826 W/m2
12:29 60.6 °F 48.8 °F 29.69 in SW 12.0 mph 22.0 mph 65 % 0.00 in 809 W/m2
12:34 61.2 °F 48.5 °F 29.69 in SW 11.0 mph 21.0 mph 63 % 0.00 in 223 W/m2
12:39 61.0 °F 48.3 °F 29.69 in SW 11.0 mph 20.0 mph 63 % 0.00 in 872 W/m2
12:44 60.6 °F 47.5 °F 29.69 in SW 14.0 mph 29.0 mph 62 % 0.00 in 276 W/m2
12:49 60.1 °F 47.0 °F 29.69 in SW 15.0 mph 29.0 mph 62 % 0.00 in 241 W/m2
12:54 59.9 °F 48.1 °F 29.69 in SW 14.0 mph 27.0 mph 65 % 0.00 in 819 W/m2
12:59 60.3 °F 48.0 °F 29.69 in SW 13.0 mph 24.0 mph 64 % 0.00 in 796 W/m2
13:04 60.6 °F 47.9 °F 29.69 in SW 13.0 mph 24.0 mph 63 % 0.00 in 802 W/m2
13:09 61.2 °F 48.9 °F 29.68 in SW 11.0 mph 21.0 mph 64 % 0.00 in 786 W/m2
13:14 61.9 °F 48.7 °F 29.68 in SW 10.0 mph 21.0 mph 62 % 0.00 in 830 W/m2
13:20 62.1 °F 47.6 °F 29.68 in SW 13.0 mph 25.0 mph 59 % 0.00 in 784 W/m2
13:30 61.9 °F 46.9 °F 29.68 in SW 15.0 mph 27.0 mph 58 % 0.00 in 824 W/m2
13:35 62.2 °F 47.7 °F 29.68 in SW 14.0 mph 27.0 mph 59 % 0.00 in 849 W/m2
13:40 63.0 °F 47.5 °F 29.68 in SW 13.0 mph 23.0 mph 57 % 0.00 in 840 W/m2
13:45 63.0 °F 47.0 °F 29.68 in SW 14.0 mph 22.0 mph 56 % 0.00 in 812 W/m2
13:50 62.6 °F 46.7 °F 29.68 in SW 13.0 mph 21.0 mph 56 % 0.00 in 758 W/m2
13:55 62.8 °F 45.9 °F 29.68 in SW 14.0 mph 25.0 mph 54 % 0.00 in 793 W/m2
14:00 63.0 °F 45.6 °F 29.68 in SW 15.0 mph 25.0 mph 53 % 0.00 in 397 W/m2
14:05 62.8 °F 45.9 °F 29.68 in SW 14.0 mph 25.0 mph 54 % 0.00 in 858 W/m2
14:10 63.0 °F 46.0 °F 29.68 in SW 14.0 mph 24.0 mph 54 % 0.00 in 758 W/m2
14:15 63.1 °F 46.7 °F 29.68 in SW 12.0 mph 20.0 mph 55 % 0.00 in 269 W/m2
14:20 63.3 °F 46.4 °F 29.68 in SW 11.0 mph 20.0 mph 54 % 0.00 in 749 W/m2
14:25 63.3 °F 45.9 °F 29.68 in WSW 12.0 mph 20.0 mph 53 % 0.00 in 733 W/m2
14:30 63.1 °F 45.7 °F 29.68 in SW 13.0 mph 22.0 mph 53 % 0.00 in 744 W/m2
14:35 63.3 °F 46.4 °F 29.68 in SW 12.0 mph 22.0 mph 54 % 0.00 in 744 W/m2
14:40 63.3 °F 45.9 °F 29.68 in SW 11.0 mph 22.0 mph 53 % 0.00 in 782 W/m2
14:45 63.3 °F 44.4 °F 29.67 in SW 12.0 mph 22.0 mph 50 % 0.00 in 803 W/m2
14:50 63.1 °F 44.7 °F 29.68 in SW 13.0 mph 24.0 mph 51 % 0.00 in 817 W/m2
14:55 63.7 °F 45.7 °F 29.68 in SW 12.0 mph 24.0 mph 52 % 0.00 in 810 W/m2
14:56 63.7 °F 45.2 °F 29.68 in SW 12.0 mph 24.0 mph 51 % 0.00 in 810 W/m2
15:01 63.9 °F 44.3 °F 29.68 in SW 12.0 mph 27.0 mph 49 % 0.00 in 824 W/m2
15:06 63.5 °F 44.0 °F 29.68 in SW 13.0 mph 27.0 mph 49 % 0.00 in 735 W/m2
15:11 63.1 °F 43.7 °F 29.68 in SW 14.0 mph 24.0 mph 49 % 0.00 in 705 W/m2
15:16 62.8 °F 43.3 °F 29.68 in SW 13.0 mph 24.0 mph 49 % 0.00 in 221 W/m2
15:21 62.6 °F 42.6 °F 29.68 in SW 12.0 mph 24.0 mph 48 % 0.00 in 327 W/m2
15:26 62.2 °F 42.3 °F 29.68 in SW 13.0 mph 24.0 mph 48 % 0.00 in 708 W/m2
15:31 62.8 °F 43.9 °F 29.68 in SW 12.0 mph 24.0 mph 50 % 0.00 in 737 W/m2
15:36 63.0 °F 44.0 °F 29.68 in WSW 10.0 mph 16.0 mph 50 % 0.00 in 751 W/m2
15:41 63.0 °F 43.5 °F 29.68 in SW 11.0 mph 20.0 mph 49 % 0.00 in 715 W/m2
15:46 62.4 °F 42.5 °F 29.68 in SW 13.0 mph 22.0 mph 48 % 0.00 in 276 W/m2
15:51 62.2 °F 43.4 °F 29.68 in SW 14.0 mph 22.0 mph 50 % 0.00 in 696 W/m2
15:56 62.2 °F 42.8 °F 29.68 in SW 13.0 mph 23.0 mph 49 % 0.00 in 260 W/m2
16:01 62.1 °F 43.7 °F 29.67 in SW 13.0 mph 23.0 mph 51 % 0.00 in 682 W/m2
16:06 62.2 °F 43.4 °F 29.67 in SW 13.0 mph 20.0 mph 50 % 0.00 in 661 W/m2
16:11 62.2 °F 43.9 °F 29.68 in WSW 12.0 mph 23.0 mph 51 % 0.00 in 236 W/m2
16:16 61.9 °F 44.1 °F 29.67 in SW 12.0 mph 23.0 mph 52 % 0.00 in 657 W/m2
16:21 62.1 °F 43.7 °F 29.67 in SW 12.0 mph 26.0 mph 51 % 0.00 in 524 W/m2
16:26 61.9 °F 43.5 °F 29.67 in SSW 14.0 mph 26.0 mph 51 % 0.00 in 628 W/m2
16:31 61.7 °F 44.4 °F 29.67 in SW 13.0 mph 25.0 mph 53 % 0.00 in 427 W/m2
16:37 61.5 °F 44.2 °F 29.67 in SW 11.0 mph 22.0 mph 53 % 0.00 in 257 W/m2
16:42 61.3 °F 43.6 °F 29.67 in SW 12.0 mph 22.0 mph 52 % 0.00 in 234 W/m2
16:47 61.3 °F 44.1 °F 29.67 in SW 12.0 mph 20.0 mph 53 % 0.00 in 466 W/m2
16:52 61.9 °F 44.6 °F 29.67 in SW 11.0 mph 20.0 mph 53 % 0.00 in 483 W/m2
16:57 61.9 °F 44.1 °F 29.67 in SW 10.0 mph 16.0 mph 52 % 0.00 in 148 W/m2
17:02 61.3 °F 43.6 °F 29.67 in SW 11.0 mph 20.0 mph 52 % 0.00 in 123 W/m2
17:07 61.2 °F 43.9 °F 29.67 in WSW 11.0 mph 20.0 mph 53 % 0.00 in 469 W/m2
17:12 61.3 °F 43.6 °F 29.67 in SW 11.0 mph 24.0 mph 52 % 0.00 in 441 W/m2
17:17 61.2 °F 43.4 °F 29.67 in SW 12.0 mph 24.0 mph 52 % 0.00 in 139 W/m2
17:22 60.6 °F 43.4 °F 29.67 in SW 12.0 mph 20.0 mph 53 % 0.00 in 95 W/m2
17:27 60.1 °F 42.9 °F 29.67 in SW 12.0 mph 21.0 mph 53 % 0.00 in 113 W/m2
17:32 60.1 °F 43.4 °F 29.67 in SW 10.0 mph 21.0 mph 54 % 0.00 in 88 W/m2
17:37 60.1 °F 42.9 °F 29.67 in SW 9.0 mph 20.0 mph 53 % 0.00 in 257 W/m2
17:42 60.1 °F 42.9 °F 29.67 in SW 11.0 mph 21.0 mph 53 % 0.00 in 102 W/m2
17:47 60.1 °F 42.9 °F 29.67 in SW 12.0 mph 21.0 mph 53 % 0.00 in 251 W/m2
17:52 60.1 °F 42.9 °F 29.67 in SW 12.0 mph 23.0 mph 53 % 0.00 in 229 W/m2
17:57 60.3 °F 43.5 °F 29.67 in SW 11.0 mph 23.0 mph 54 % 0.00 in 72 W/m2
18:02 59.9 °F 43.2 °F 29.67 in SW 11.0 mph 21.0 mph 54 % 0.00 in 202 W/m2
18:07 59.7 °F 43.0 °F 29.67 in SW 11.0 mph 21.0 mph 54 % 0.00 in 181 W/m2
18:12 59.7 °F 43.5 °F 29.67 in SW 9.0 mph 18.0 mph 55 % 0.00 in 163 W/m2
18:17 59.7 °F 43.5 °F 29.67 in SW 10.0 mph 19.0 mph 55 % 0.00 in 151 W/m2
18:22 59.5 °F 43.3 °F 29.68 in SW 10.0 mph 19.0 mph 55 % 0.00 in 40 W/m2
18:27 59.4 °F 43.2 °F 29.67 in SW 10.0 mph 16.0 mph 55 % 0.00 in 33 W/m2
18:32 59.0 °F 43.3 °F 29.67 in SW 10.0 mph 16.0 mph 56 % 0.00 in 44 W/m2
18:37 58.8 °F 43.6 °F 29.67 in SSW 9.0 mph 16.0 mph 57 % 0.00 in 33 W/m2
18:42 58.6 °F 43.4 °F 29.67 in SSW 7.0 mph 12.0 mph 57 % 0.00 in 26 W/m2
18:47 58.6 °F 43.9 °F 29.68 in SSW 7.0 mph 12.0 mph 58 % 0.00 in 16 W/m2
18:52 58.6 °F 43.9 °F 29.68 in SSW 7.0 mph 13.0 mph 58 % 0.00 in 11 W/m2
18:57 58.5 °F 44.2 °F 29.68 in SSW 7.0 mph 14.0 mph 59 % 0.00 in 7 W/m2
19:02 58.5 °F 44.2 °F 29.68 in South 8.0 mph 15.0 mph 59 % 0.00 in 9 W/m2
19:08 58.5 °F 44.2 °F 29.68 in SSW 9.0 mph 15.0 mph 59 % 0.00 in 11 W/m2
19:13 58.5 °F 44.2 °F 29.68 in SSW 9.0 mph 14.0 mph 59 % 0.00 in 14 W/m2
19:18 58.3 °F 44.4 °F 29.68 in South 9.0 mph 14.0 mph 60 % 0.00 in 19 W/m2
19:23 58.3 °F 44.4 °F 29.68 in SSW 8.0 mph 13.0 mph 60 % 0.00 in 16 W/m2
19:28 58.3 °F 44.4 °F 29.68 in SSW 8.0 mph 19.0 mph 60 % 0.00 in 9 W/m2
19:33 58.1 °F 44.7 °F 29.68 in SSW 10.0 mph 22.0 mph 61 % 0.00 in 0 W/m2
19:38 57.9 °F 44.5 °F 29.68 in SSW 12.0 mph 22.0 mph 61 % 0.00 in 0 W/m2
19:43 57.7 °F 44.4 °F 29.68 in SSW 12.0 mph 20.0 mph 61 % 0.00 in 0 W/m2
19:48 57.6 °F 44.6 °F 29.69 in SSW 10.0 mph 18.0 mph 62 % 0.00 in 0 W/m2
19:53 57.6 °F 44.6 °F 29.69 in SSW 9.0 mph 14.0 mph 62 % 0.00 in 0 W/m2
19:58 57.4 °F 44.9 °F 29.69 in SSW 10.0 mph 22.0 mph 63 % 0.00 in 0 W/m2
20:03 57.4 °F 46.1 °F 29.69 in SSW 11.0 mph 22.0 mph 66 % 0.00 in 0 W/m2
20:08 57.0 °F 45.8 °F 29.69 in SW 9.0 mph 18.0 mph 66 % 0.00 in 0 W/m2
20:13 56.8 °F 46.0 °F 29.69 in SW 7.0 mph 13.0 mph 67 % 0.00 in 0 W/m2
20:18 56.8 °F 45.6 °F 29.70 in SSW 6.0 mph 13.0 mph 66 % 0.00 in 0 W/m2
20:23 56.7 °F 45.4 °F 29.70 in SSW 6.0 mph 12.0 mph 66 % 0.00 in 0 W/m2
20:28 56.7 °F 45.8 °F 29.69 in SSW 7.0 mph 14.0 mph 67 % 0.00 in 0 W/m2
20:33 56.7 °F 46.2 °F 29.70 in SSW 8.0 mph 16.0 mph 68 % 0.00 in 0 W/m2
20:38 56.5 °F 46.0 °F 29.70 in SSW 9.0 mph 19.0 mph 68 % 0.00 in 0 W/m2
20:43 56.3 °F 46.3 °F 29.70 in SSW 10.0 mph 19.0 mph 69 % 0.00 in 0 W/m2
20:48 56.1 °F 46.5 °F 29.70 in SSW 9.0 mph 16.0 mph 70 % 0.00 in 0 W/m2
20:53 55.9 °F 46.7 °F 29.70 in SSW 10.0 mph 21.0 mph 71 % 0.00 in 0 W/m2
20:58 55.9 °F 47.0 °F 29.70 in SSW 9.0 mph 21.0 mph 72 % 0.00 in 0 W/m2
21:03 55.8 °F 46.9 °F 29.70 in SW 9.0 mph 15.0 mph 72 % 0.00 in 0 W/m2
21:08 55.6 °F 47.1 °F 29.70 in SW 10.0 mph 15.0 mph 73 % 0.00 in 0 W/m2
21:13 55.6 °F 47.1 °F 29.70 in SW 11.0 mph 18.0 mph 73 % 0.00 in 0 W/m2
21:18 55.6 °F 47.4 °F 29.70 in SSW 12.0 mph 21.0 mph 74 % 0.00 in 0 W/m2
21:23 55.0 °F 47.6 °F 29.70 in SSW 11.0 mph 21.0 mph 76 % 0.00 in 0 W/m2
21:28 54.9 °F 47.8 °F 29.70 in SSW 9.0 mph 15.0 mph 77 % 0.00 in 0 W/m2
21:34 54.7 °F 48.0 °F 29.70 in SSW 9.0 mph 15.0 mph 78 % 0.00 in 0 W/m2
21:39 54.5 °F 47.8 °F 29.70 in SSW 8.0 mph 16.0 mph 78 % 0.00 in 0 W/m2
21:44 54.3 °F 47.6 °F 29.70 in SSW 8.0 mph 16.0 mph 78 % 0.00 in 0 W/m2
21:49 54.3 °F 47.6 °F 29.70 in SSW 8.0 mph 16.0 mph 78 % 0.00 in 0 W/m2
21:54 54.1 °F 47.4 °F 29.70 in SSW 7.0 mph 16.0 mph 78 % 0.00 in 0 W/m2
21:59 54.1 °F 47.8 °F 29.70 in SSW 7.0 mph 18.0 mph 79 % 0.00 in 0 W/m2
22:04 54.1 °F 47.8 °F 29.70 in SSW 7.0 mph 18.0 mph 79 % 0.00 in 0 W/m2
22:09 54.1 °F 47.8 °F 29.70 in SSW 7.0 mph 11.0 mph 79 % 0.00 in 0 W/m2
22:14 54.0 °F 47.6 °F 29.70 in SSW 7.0 mph 11.0 mph 79 % 0.00 in 0 W/m2
22:19 54.0 °F 47.6 °F 29.70 in SSW 6.0 mph 11.0 mph 79 % 0.00 in 0 W/m2
22:24 54.0 °F 47.6 °F 29.70 in SSW 5.0 mph 9.0 mph 79 % 0.00 in 0 W/m2
22:29 54.0 °F 47.6 °F 29.70 in South 5.0 mph 9.0 mph 79 % 0.00 in 0 W/m2
22:34 53.8 °F 47.4 °F 29.70 in South 5.0 mph 10.0 mph 79 % 0.00 in 0 W/m2
22:39 53.8 °F 47.8 °F 29.70 in SSW 6.0 mph 14.0 mph 80 % 0.00 in 0 W/m2
22:44 53.6 °F 47.6 °F 29.70 in SSW 7.0 mph 14.0 mph 80 % 0.00 in 0 W/m2
22:49 53.4 °F 47.4 °F 29.70 in South 6.0 mph 11.0 mph 80 % 0.00 in 0 W/m2
22:54 53.4 °F 47.7 °F 29.70 in South 6.0 mph 11.0 mph 81 % 0.00 in 0 W/m2
22:59 53.2 °F 47.6 °F 29.70 in South 5.0 mph 11.0 mph 81 % 0.00 in 0 W/m2
23:04 53.1 °F 47.4 °F 29.70 in South 4.0 mph 10.0 mph 81 % 0.00 in 0 W/m2
23:09 53.1 °F 47.4 °F 29.70 in SSW 5.0 mph 11.0 mph 81 % 0.00 in 0 W/m2
23:14 52.9 °F 47.2 °F 29.70 in South 5.0 mph 11.0 mph 81 % 0.00 in 0 W/m2
23:19 52.9 °F 47.2 °F 29.70 in South 6.0 mph 11.0 mph 81 % 0.00 in 0 W/m2
23:24 52.7 °F 47.0 °F 29.70 in SSW 6.0 mph 11.0 mph 81 % 0.00 in 0 W/m2
23:29 52.7 °F 47.0 °F 29.70 in SSW 6.0 mph 11.0 mph 81 % 0.00 in 0 W/m2
23:34 52.5 °F 46.9 °F 29.70 in South 6.0 mph 11.0 mph 81 % 0.00 in 0 W/m2
23:39 52.5 °F 46.9 °F 29.70 in SSW 6.0 mph 15.0 mph 81 % 0.00 in 0 W/m2
23:44 52.5 °F 46.9 °F 29.70 in SSW 7.0 mph 15.0 mph 81 % 0.00 in 0 W/m2
23:49 52.5 °F 46.9 °F 29.70 in SSW 6.0 mph 11.0 mph 81 % 0.00 in 0 W/m2
23:54 52.5 °F 46.9 °F 29.70 in SSW 4.0 mph 11.0 mph 81 % 0.00 in 0 W/m2
23:59 52.3 °F 46.7 °F 29.70 in South 4.0 mph 9.0 mph 81 % 0.00 in 0 W/m2
Delerius-Weather
Compliments of Weather Underground - 2.25 mb

Data updates at regular intervals.